x

Halifax Harbour (44258) Wave Buoy

10:00pm - Sun 20th Aug 2017 All times are EDT. -4 hours from GMT.

  • Sig Wave height 4.3ft
  • Peak Period 7s
  • Wind
    7mph, 9mph gusts
  • Sea Temp 58°f
  • Air Temp 61°f
  • Sea Pressure 1013mb
  • Halifax Harbour
  • Halifax Harbour

More Historic Weather Station data

Upgrade to MSW Pro to gain access to the past 30 days of data for over 8000 Wavebouys and Weather Stations around the globe.

Join

Comparision Forecast

View Surf forecast
   
Sun 08/20 10:00pm 4.5ft 7s 7 9 mph 1013mb 58f 61f
9:00pm 4.5ft 7s 7 9 mph 1012.7mb 58f 61f
8:00pm 3.5ft 7s 9 11 mph 1012.1mb 59f 62f
7:00pm 4ft 7s 13 13 mph 1011.4mb 59f 63f
6:00pm 4ft 7s 13 16 mph 1010.9mb 60f 63f
5:00pm 4ft 7s 13 16 mph 1010.9mb 60f 62f
4:00pm 3.5ft 7s 16 18 mph 1010.8mb 60f 61f
3:00pm 4.5ft 7s 13 16 mph 1010.9mb 60f 61f
2:00pm 5ft 7s 13 16 mph 1011.1mb 60f 62f
1:00pm 4.5ft 7s 11 13 mph 1011.6mb 60f 63f
12:00pm 5ft 7s 9 11 mph 1011.7mb 61f 63f
11:00am 4.5ft 8s 9 9 mph 1012mb 61f 62f
10:00am 4.5ft 7s 9 11 mph 1011.9mb 61f 62f
9:00am 5ft 7s 9 11 mph 1012.1mb 61f 63f
8:00am 5ft 7s 11 13 mph 1012.2mb 61f 62f
7:00am 4.5ft 7s 9 11 mph 1011.8mb 61f 62f
6:00am 5ft 6s 9 11 mph 1011.6mb 61f 62f
5:00am 5ft 7s 11 13 mph 1010.9mb 61f 63f
4:00am 6ft 7s 13 16 mph 1010.9mb 60f 63f
3:00am 5.5ft 6s 13 16 mph 1010.9mb 61f 63f
2:00am 6ft 7s 16 20 mph 1011.5mb 61f 64f
1:00am 6ft 6s 22 27 mph 1011.8mb 61f 65f
12:00am 5ft 6s 22 31 mph 1012.2mb 62f 65f
Sat 08/19 11:00pm 5ft 6s 20 27 mph 1012.5mb 62f 65f
10:00pm 5ft 6s 22 29 mph 1012.6mb 63f 66f
9:00pm 5ft 6s 27 36 mph 1012.5mb 63f 67f
8:00pm 5.5ft 6s 29 36 mph 1012.6mb 63f 67f
7:00pm 6ft 6s 25 36 mph 1013mb 63f 66f
6:00pm 5ft 6s 29 38 mph 1013.2mb 63f 66f
5:00pm 5ft 6s 29 36 mph 1013.7mb 64f 66f
4:00pm 5.5ft 5s 31 38 mph 1014.4mb 63f 65f
3:00pm 5ft 5s 31 40 mph 1014.9mb 62f 65f
2:00pm 4.5ft 5s 29 40 mph 1015.4mb 62f 65f
1:00pm 4ft 5s 29 38 mph 1016.4mb 62f 63f
12:00pm 3ft 4s 22 31 mph 1016.6mb 63f 64f
11:00am 2.5ft 4s 22 31 mph 1016.8mb 64f 64f
10:00am 2ft 3s 25 31 mph 1016.5mb 64f 63f
9:00am 1.6ft 8s 20 27 mph 1017.2mb 64f 63f
8:00am 1.6ft 8s 16 18 mph 1017.5mb 64f 63f
7:00am 1.6ft 9s 13 18 mph 1018mb 64f 62f
6:00am 1.3ft 8s 13 13 mph 1018.2mb 63f 62f
5:00am 1.3ft 8s 13 16 mph 1018.2mb 62f 63f
4:00am 1.3ft 7s 13 18 mph 1018mb 60f 65f
3:00am 1.6ft 9s 9 9 mph 1017.9mb 61f 65f
2:00am 1.3ft 7s 7 7 mph 1017.9mb 61f 64f
1:00am 1.6ft 8s 4 7 mph 1018.3mb 61f 64f
12:00am 1.6ft 8s 4 4 mph 1018.1mb 62f 64f
Fri 08/18 11:00pm 1.6ft 9s 4 4 mph 1018.1mb 62f 64f
10:00pm 1.6ft 8s 2 4 mph 1018mb 62f 64f
9:00pm 1.6ft 9s 2 4 mph 1017.5mb 61f 64f
8:00pm 1.6ft 9s 4 4 mph 1017.4mb 59f 63f
7:00pm 1.6ft 9s 7 9 mph 1017.2mb 59f 63f
6:00pm 1.6ft 8s 7 7 mph 1017mb 59f 62f
5:00pm 2ft 8s 9 9 mph 1016.5mb 59f 63f
4:00pm 1.6ft 8s 11 13 mph 1016.5mb 56f 63f
3:00pm 2ft 10s 9 11 mph 1016.3mb 55f 63f
2:00pm 2ft 10s 13 16 mph 1016.5mb 56f 62f
1:00pm 1.6ft 10s 13 16 mph 1016.9mb 57f 62f
12:00pm 2ft 9s 9 11 mph 1017mb 58f 62f
11:00am 2ft 10s 4 4 mph 1016.8mb 60f 63f
10:00am 2ft 9s 2 2 mph 1016.2mb 59f 63f
9:00am 2ft 8s 4 7 mph 1016.2mb 59f 60f
8:00am 2ft 9s 7 9 mph 1016mb 60f 59f
7:00am 2.5ft 9s 7 9 mph 1015.8mb 60f 58f
6:00am 2.5ft 10s 7 9 mph 1015.1mb 60f 57f
5:00am 2.5ft 10s 7 7 mph 1014.8mb 58f 56f
4:00am 2.5ft 10s 4 4 mph 1014.6mb 56f 56f
3:00am 3ft 10s 4 4 mph 1014.2mb 56f 56f
2:00am 3.5ft 9s 7 9 mph 1014mb 55f 58f
1:00am 3.5ft 10s 9 11 mph 1013.5mb 55f 58f
12:00am 3.5ft 9s 9 11 mph 1013.5mb 55f 58f
Thu 08/17 11:00pm 4ft 11s 9 11 mph 1013.2mb 55f 59f
10:00pm 4ft 11s 9 9 mph 1013mb 56f 58f
9:00pm 4ft 10s 9 11 mph 1012.1mb 56f 60f
8:00pm 4ft 10s 9 11 mph 1011.5mb 56f 62f
7:00pm 4ft 10s 13 13 mph 1010.9mb 57f 63f
6:00pm 4ft 11s 13 16 mph 1009.7mb 58f 64f
5:00pm 4.5ft 11s 11 13 mph 1009.1mb 58f 63f
4:00pm 5ft 10s 13 18 mph 1008.5mb 59f 64f
3:00pm 5ft 11s 18 27 mph 1008.1mb 60f 65f
2:00pm 4.5ft 12s 29 38 mph 1007.7mb 62f 64f
1:00pm 4.5ft 12s 25 34 mph 1008mb 62f 63f
12:00pm 3.5ft 12s 25 34 mph 1008.6mb 62f 63f
11:00am 4ft 13s 22 29 mph 1009.3mb 62f 62f
10:00am 3.5ft 14s 18 25 mph 1010mb 63f 62f
9:00am 3.5ft 14s 16 20 mph 1010.6mb 63f 62f
8:00am 3.5ft 12s 13 16 mph 1010.8mb 64f 60f
7:00am 3.5ft 12s 13 16 mph 1010.8mb 64f 59f
6:00am 3.5ft 13s 9 11 mph 1010.5mb 61f 60f
5:00am 3.5ft 14s 9 11 mph 1010.4mb 61f 59f
4:00am 3.5ft 15s 9 13 mph 1010.1mb 62f 60f